sensor_id;sensor_type;location;lat;lon;timestamp;P1;durP1;ratioP1;P2;durP2;ratioP2
13704;SDS011;6924;52.122;9.952;2023-08-08T00:00:39;5.57;;;1.20;;
13704;SDS011;6924;52.122;9.952;2023-08-08T00:03:07;2.03;;;1.50;;
13704;SDS011;6924;52.122;9.952;2023-08-08T00:05:34;5.63;;;1.47;;
13704;SDS011;6924;52.122;9.952;2023-08-08T00:08:02;1.90;;;1.30;;
13704;SDS011;6924;52.122;9.952;2023-08-08T00:10:28;1.87;;;1.67;;
13704;SDS011;6924;52.122;9.952;2023-08-08T00:12:55;2.77;;;1.50;;
13704;SDS011;6924;52.122;9.952;2023-08-08T00:15:21;2.73;;;1.23;;
13704;SDS011;6924;52.122;9.952;2023-08-08T00:17:48;1.60;;;1.43;;
13704;SDS011;6924;52.122;9.952;2023-08-08T00:20:14;3.10;;;1.33;;
13704;SDS011;6924;52.122;9.952;2023-08-08T00:22:41;2.53;;;1.30;;
13704;SDS011;6924;52.122;9.952;2023-08-08T00:25:09;2.90;;;1.90;;
13704;SDS011;6924;52.122;9.952;2023-08-08T00:27:35;3.53;;;1.30;;
13704;SDS011;6924;52.122;9.952;2023-08-08T00:30:07;3.00;;;1.60;;
13704;SDS011;6924;52.122;9.952;2023-08-08T00:32:34;1.70;;;1.30;;
13704;SDS011;6924;52.122;9.952;2023-08-08T00:35:01;1.77;;;1.27;;
13704;SDS011;6924;52.122;9.952;2023-08-08T00:37:27;2.03;;;1.93;;
13704;SDS011;6924;52.122;9.952;2023-08-08T00:39:54;2.67;;;1.60;;
13704;SDS011;6924;52.122;9.952;2023-08-08T00:42:22;3.43;;;1.40;;
13704;SDS011;6924;52.122;9.952;2023-08-08T00:44:48;2.30;;;1.50;;
13704;SDS011;6924;52.122;9.952;2023-08-08T00:47:15;8.23;;;1.90;;
13704;SDS011;6924;52.122;9.952;2023-08-08T00:49:41;2.07;;;1.53;;
13704;SDS011;6924;52.122;9.952;2023-08-08T00:52:09;1.50;;;1.17;;
13704;SDS011;6924;52.122;9.952;2023-08-08T00:54:36;2.87;;;1.37;;
13704;SDS011;6924;52.122;9.952;2023-08-08T00:57:03;3.00;;;1.80;;
13704;SDS011;6924;52.122;9.952;2023-08-08T00:59:31;1.53;;;1.13;;
13704;SDS011;6924;52.122;9.952;2023-08-08T01:01:57;2.43;;;1.40;;
13704;SDS011;6924;52.122;9.952;2023-08-08T01:04:24;3.67;;;1.40;;
13704;SDS011;6924;52.122;9.952;2023-08-08T01:06:54;2.30;;;1.23;;
13704;SDS011;6924;52.122;9.952;2023-08-08T01:09:29;1.70;;;1.50;;
13704;SDS011;6924;52.122;9.952;2023-08-08T01:11:59;1.57;;;1.30;;
13704;SDS011;6924;52.122;9.952;2023-08-08T01:14:28;1.50;;;1.40;;
13704;SDS011;6924;52.122;9.952;2023-08-08T01:16:58;2.73;;;1.47;;
13704;SDS011;6924;52.122;9.952;2023-08-08T01:19:27;2.30;;;1.40;;
13704;SDS011;6924;52.122;9.952;2023-08-08T01:21:56;2.80;;;1.30;;
13704;SDS011;6924;52.122;9.952;2023-08-08T01:24:26;1.57;;;1.47;;
13704;SDS011;6924;52.122;9.952;2023-08-08T01:26:55;2.40;;;1.40;;
13704;SDS011;6924;52.122;9.952;2023-08-08T01:29:21;2.17;;;1.23;;
13704;SDS011;6924;52.122;9.952;2023-08-08T01:31:48;4.07;;;2.27;;
13704;SDS011;6924;52.122;9.952;2023-08-08T01:34:14;1.80;;;1.20;;
13704;SDS011;6924;52.122;9.952;2023-08-08T01:36:42;1.27;;;1.17;;
13704;SDS011;6924;52.122;9.952;2023-08-08T01:39:16;4.70;;;1.40;;
13704;SDS011;6924;52.122;9.952;2023-08-08T01:41:47;3.07;;;1.80;;
13704;SDS011;6924;52.122;9.952;2023-08-08T01:44:15;2.77;;;1.53;;
13704;SDS011;6924;52.122;9.952;2023-08-08T01:46:44;3.33;;;1.50;;
13704;SDS011;6924;52.122;9.952;2023-08-08T01:49:11;2.80;;;1.30;;
13704;SDS011;6924;52.122;9.952;2023-08-08T01:51:38;3.30;;;1.50;;
13704;SDS011;6924;52.122;9.952;2023-08-08T01:54:04;5.27;;;1.73;;
13704;SDS011;6924;52.122;9.952;2023-08-08T01:56:31;4.67;;;2.27;;
13704;SDS011;6924;52.122;9.952;2023-08-08T01:58:59;2.20;;;1.60;;
13704;SDS011;6924;52.122;9.952;2023-08-08T02:01:25;2.13;;;1.50;;
13704;SDS011;6924;52.122;9.952;2023-08-08T02:03:52;3.10;;;1.47;;
13704;SDS011;6924;52.122;9.952;2023-08-08T02:06:18;3.33;;;1.53;;
13704;SDS011;6924;52.122;9.952;2023-08-08T02:08:45;1.60;;;1.50;;
13704;SDS011;6924;52.122;9.952;2023-08-08T02:11:12;1.30;;;1.20;;
13704;SDS011;6924;52.122;9.952;2023-08-08T02:13:38;2.93;;;1.90;;
13704;SDS011;6924;52.122;9.952;2023-08-08T02:16:06;2.13;;;1.70;;
13704;SDS011;6924;52.122;9.952;2023-08-08T02:18:32;2.70;;;1.60;;
13704;SDS011;6924;52.122;9.952;2023-08-08T02:20:59;2.20;;;1.47;;
13704;SDS011;6924;52.122;9.952;2023-08-08T02:23:25;2.23;;;1.50;;
13704;SDS011;6924;52.122;9.952;2023-08-08T02:25:52;3.97;;;1.80;;
13704;SDS011;6924;52.122;9.952;2023-08-08T02:28:18;1.67;;;1.50;;
13704;SDS011;6924;52.122;9.952;2023-08-08T02:30:45;5.20;;;2.00;;
13704;SDS011;6924;52.122;9.952;2023-08-08T02:33:13;2.00;;;1.20;;
13704;SDS011;6924;52.122;9.952;2023-08-08T02:35:40;2.73;;;2.00;;
13704;SDS011;6924;52.122;9.952;2023-08-08T02:38:06;3.17;;;1.70;;
13704;SDS011;6924;52.122;9.952;2023-08-08T02:40:33;2.47;;;2.00;;
13704;SDS011;6924;52.122;9.952;2023-08-08T02:42:59;2.40;;;1.97;;
13704;SDS011;6924;52.122;9.952;2023-08-08T02:45:26;1.60;;;1.50;;
13704;SDS011;6924;52.122;9.952;2023-08-08T02:47:52;1.90;;;1.70;;
13704;SDS011;6924;52.122;9.952;2023-08-08T02:50:20;2.60;;;1.90;;
13704;SDS011;6924;52.122;9.952;2023-08-08T02:52:46;2.90;;;1.90;;
13704;SDS011;6924;52.122;9.952;2023-08-08T02:55:13;2.30;;;2.10;;
13704;SDS011;6924;52.122;9.952;2023-08-08T02:57:39;3.23;;;2.00;;
13704;SDS011;6924;52.122;9.952;2023-08-08T03:00:07;2.37;;;1.90;;
13704;SDS011;6924;52.122;9.952;2023-08-08T03:02:34;2.57;;;2.10;;
13704;SDS011;6924;52.122;9.952;2023-08-08T03:05:01;4.67;;;2.17;;
13704;SDS011;6924;52.122;9.952;2023-08-08T03:07:29;2.80;;;2.30;;
13704;SDS011;6924;52.122;9.952;2023-08-08T03:09:55;2.73;;;2.20;;
13704;SDS011;6924;52.122;9.952;2023-08-08T03:12:21;2.20;;;2.00;;
13704;SDS011;6924;52.122;9.952;2023-08-08T03:14:48;2.80;;;2.10;;
13704;SDS011;6924;52.122;9.952;2023-08-08T03:17:14;7.83;;;2.93;;
13704;SDS011;6924;52.122;9.952;2023-08-08T03:19:41;2.57;;;2.10;;
13704;SDS011;6924;52.122;9.952;2023-08-08T03:22:07;2.13;;;1.93;;
13704;SDS011;6924;52.122;9.952;2023-08-08T03:24:35;2.93;;;2.20;;
13704;SDS011;6924;52.122;9.952;2023-08-08T03:27:02;5.27;;;2.37;;
13704;SDS011;6924;52.122;9.952;2023-08-08T03:29:28;2.97;;;1.63;;
13704;SDS011;6924;52.122;9.952;2023-08-08T03:31:55;4.47;;;1.83;;
13704;SDS011;6924;52.122;9.952;2023-08-08T03:34:21;2.73;;;1.90;;
13704;SDS011;6924;52.122;9.952;2023-08-08T03:36:48;2.83;;;1.80;;
13704;SDS011;6924;52.122;9.952;2023-08-08T03:39:14;1.80;;;1.70;;
13704;SDS011;6924;52.122;9.952;2023-08-08T03:41:42;2.80;;;2.13;;
13704;SDS011;6924;52.122;9.952;2023-08-08T03:44:09;4.57;;;1.60;;
13704;SDS011;6924;52.122;9.952;2023-08-08T03:46:35;1.80;;;1.70;;
13704;SDS011;6924;52.122;9.952;2023-08-08T03:49:02;1.90;;;1.50;;
13704;SDS011;6924;52.122;9.952;2023-08-08T03:51:28;4.23;;;1.70;;
13704;SDS011;6924;52.122;9.952;2023-08-08T03:53:55;1.63;;;1.30;;
13704;SDS011;6924;52.122;9.952;2023-08-08T03:56:22;2.17;;;1.43;;
13704;SDS011;6924;52.122;9.952;2023-08-08T03:58:50;2.00;;;1.80;;
13704;SDS011;6924;52.122;9.952;2023-08-08T04:01:16;2.97;;;1.37;;
13704;SDS011;6924;52.122;9.952;2023-08-08T04:03:43;2.30;;;1.53;;
13704;SDS011;6924;52.122;9.952;2023-08-08T04:06:09;2.23;;;1.53;;
13704;SDS011;6924;52.122;9.952;2023-08-08T04:08:36;1.77;;;1.67;;
13704;SDS011;6924;52.122;9.952;2023-08-08T04:11:02;3.43;;;1.90;;
13704;SDS011;6924;52.122;9.952;2023-08-08T04:13:29;1.17;;;1.07;;
13704;SDS011;6924;52.122;9.952;2023-08-08T04:15:57;2.37;;;1.50;;
13704;SDS011;6924;52.122;9.952;2023-08-08T04:18:23;4.63;;;1.40;;
13704;SDS011;6924;52.122;9.952;2023-08-08T04:20:50;2.17;;;1.50;;
13704;SDS011;6924;52.122;9.952;2023-08-08T04:23:16;4.00;;;1.60;;
13704;SDS011;6924;52.122;9.952;2023-08-08T04:25:43;5.83;;;1.87;;
13704;SDS011;6924;52.122;9.952;2023-08-08T04:28:09;3.63;;;1.50;;
13704;SDS011;6924;52.122;9.952;2023-08-08T04:30:35;3.03;;;1.70;;
13704;SDS011;6924;52.122;9.952;2023-08-08T04:33:04;4.33;;;1.60;;
13704;SDS011;6924;52.122;9.952;2023-08-08T04:35:30;1.83;;;1.50;;
13704;SDS011;6924;52.122;9.952;2023-08-08T04:37:57;1.47;;;1.33;;
13704;SDS011;6924;52.122;9.952;2023-08-08T04:40:23;2.83;;;2.03;;
13704;SDS011;6924;52.122;9.952;2023-08-08T04:42:50;1.63;;;1.37;;
13704;SDS011;6924;52.122;9.952;2023-08-08T04:45:17;3.23;;;1.40;;
13704;SDS011;6924;52.122;9.952;2023-08-08T04:47:44;2.70;;;1.70;;
13704;SDS011;6924;52.122;9.952;2023-08-08T04:50:11;2.17;;;1.30;;
13704;SDS011;6924;52.122;9.952;2023-08-08T04:52:38;3.23;;;1.50;;
13704;SDS011;6924;52.122;9.952;2023-08-08T04:55:05;2.10;;;1.47;;
13704;SDS011;6924;52.122;9.952;2023-08-08T04:57:32;1.70;;;1.30;;
13704;SDS011;6924;52.122;9.952;2023-08-08T04:59:58;1.70;;;1.60;;
13704;SDS011;6924;52.122;9.952;2023-08-08T05:02:28;2.43;;;1.30;;
13704;SDS011;6924;52.122;9.952;2023-08-08T05:04:54;3.33;;;1.67;;
13704;SDS011;6924;52.122;9.952;2023-08-08T05:07:22;2.70;;;1.40;;
13704;SDS011;6924;52.122;9.952;2023-08-08T05:09:48;2.30;;;2.10;;
13704;SDS011;6924;52.122;9.952;2023-08-08T05:12:15;2.83;;;2.63;;
13704;SDS011;6924;52.122;9.952;2023-08-08T05:14:41;3.80;;;2.00;;
13704;SDS011;6924;52.122;9.952;2023-08-08T05:17:08;2.57;;;2.20;;
13704;SDS011;6924;52.122;9.952;2023-08-08T05:19:34;5.70;;;2.20;;
13704;SDS011;6924;52.122;9.952;2023-08-08T05:22:01;3.10;;;2.70;;
13704;SDS011;6924;52.122;9.952;2023-08-08T05:24:28;8.20;;;2.50;;
13704;SDS011;6924;52.122;9.952;2023-08-08T05:26:55;4.70;;;2.90;;
13704;SDS011;6924;52.122;9.952;2023-08-08T05:29:21;2.77;;;2.00;;
13704;SDS011;6924;52.122;9.952;2023-08-08T05:31:49;2.87;;;2.67;;
13704;SDS011;6924;52.122;9.952;2023-08-08T05:34:15;3.07;;;2.87;;
13704;SDS011;6924;52.122;9.952;2023-08-08T05:36:42;4.83;;;2.90;;
13704;SDS011;6924;52.122;9.952;2023-08-08T05:39:08;3.93;;;2.83;;
13704;SDS011;6924;52.122;9.952;2023-08-08T05:41:37;5.10;;;3.00;;
13704;SDS011;6924;52.122;9.952;2023-08-08T05:44:03;3.73;;;3.10;;
13704;SDS011;6924;52.122;9.952;2023-08-08T05:46:30;4.43;;;2.97;;
13704;SDS011;6924;52.122;9.952;2023-08-08T05:48:56;4.17;;;3.73;;
13704;SDS011;6924;52.122;9.952;2023-08-08T05:51:23;3.67;;;3.37;;
13704;SDS011;6924;52.122;9.952;2023-08-08T05:53:49;4.50;;;3.23;;
13704;SDS011;6924;52.122;9.952;2023-08-08T05:56:16;4.83;;;3.17;;
13704;SDS011;6924;52.122;9.952;2023-08-08T05:58:44;4.10;;;2.83;;
13704;SDS011;6924;52.122;9.952;2023-08-08T06:01:10;3.70;;;3.30;;
13704;SDS011;6924;52.122;9.952;2023-08-08T06:03:37;4.87;;;4.53;;
13704;SDS011;6924;52.122;9.952;2023-08-08T06:06:03;3.20;;;2.90;;
13704;SDS011;6924;52.122;9.952;2023-08-08T06:08:31;4.30;;;3.13;;
13704;SDS011;6924;52.122;9.952;2023-08-08T06:10:57;4.07;;;2.90;;
13704;SDS011;6924;52.122;9.952;2023-08-08T06:13:24;3.17;;;2.97;;
13704;SDS011;6924;52.122;9.952;2023-08-08T06:15:52;3.13;;;2.77;;
13704;SDS011;6924;52.122;9.952;2023-08-08T06:18:18;3.77;;;2.90;;
13704;SDS011;6924;52.122;9.952;2023-08-08T06:20:45;4.00;;;2.60;;
13704;SDS011;6924;52.122;9.952;2023-08-08T06:23:11;3.87;;;2.70;;
13704;SDS011;6924;52.122;9.952;2023-08-08T06:25:37;2.70;;;2.50;;
13704;SDS011;6924;52.122;9.952;2023-08-08T06:28:05;3.67;;;2.20;;
13704;SDS011;6924;52.122;9.952;2023-08-08T06:30:32;4.77;;;3.17;;
13704;SDS011;6924;52.122;9.952;2023-08-08T06:33:00;4.73;;;2.40;;
13704;SDS011;6924;52.122;9.952;2023-08-08T06:35:26;3.33;;;2.40;;
13704;SDS011;6924;52.122;9.952;2023-08-08T06:37:53;2.63;;;2.37;;
13704;SDS011;6924;52.122;9.952;2023-08-08T06:40:19;2.87;;;2.50;;
13704;SDS011;6924;52.122;9.952;2023-08-08T06:42:46;3.53;;;3.23;;
13704;SDS011;6924;52.122;9.952;2023-08-08T06:45:12;3.93;;;3.30;;
13704;SDS011;6924;52.122;9.952;2023-08-08T06:47:39;3.83;;;3.53;;
13704;SDS011;6924;52.122;9.952;2023-08-08T06:50:07;4.73;;;3.30;;
13704;SDS011;6924;52.122;9.952;2023-08-08T06:52:35;4.87;;;4.23;;
13704;SDS011;6924;52.122;9.952;2023-08-08T06:55:01;4.50;;;4.20;;
13704;SDS011;6924;52.122;9.952;2023-08-08T06:57:29;4.13;;;3.83;;
13704;SDS011;6924;52.122;9.952;2023-08-08T06:59:59;4.07;;;3.77;;
13704;SDS011;6924;52.122;9.952;2023-08-08T07:02:25;4.63;;;4.03;;
13704;SDS011;6924;52.122;9.952;2023-08-08T07:04:52;3.93;;;3.67;;
13704;SDS011;6924;52.122;9.952;2023-08-08T07:07:19;3.93;;;3.70;;
13704;SDS011;6924;52.122;9.952;2023-08-08T07:09:46;4.90;;;4.07;;
13704;SDS011;6924;52.122;9.952;2023-08-08T07:12:14;4.13;;;3.83;;
13704;SDS011;6924;52.122;9.952;2023-08-08T07:14:40;4.50;;;4.20;;
13704;SDS011;6924;52.122;9.952;2023-08-08T07:17:07;4.53;;;3.90;;
13704;SDS011;6924;52.122;9.952;2023-08-08T07:19:35;5.43;;;4.93;;
13704;SDS011;6924;52.122;9.952;2023-08-08T07:22:02;5.07;;;4.57;;
13704;SDS011;6924;52.122;9.952;2023-08-08T07:24:31;4.57;;;4.17;;
13704;SDS011;6924;52.122;9.952;2023-08-08T07:26:57;5.80;;;3.63;;
13704;SDS011;6924;52.122;9.952;2023-08-08T07:29:25;6.27;;;4.53;;
13704;SDS011;6924;52.122;9.952;2023-08-08T07:31:52;4.43;;;4.03;;
13704;SDS011;6924;52.122;9.952;2023-08-08T07:34:19;4.30;;;3.97;;
13704;SDS011;6924;52.122;9.952;2023-08-08T07:36:46;3.97;;;3.60;;
13704;SDS011;6924;52.122;9.952;2023-08-08T07:39:13;5.03;;;4.57;;
13704;SDS011;6924;52.122;9.952;2023-08-08T07:41:41;4.03;;;3.67;;
13704;SDS011;6924;52.122;9.952;2023-08-08T07:44:07;7.90;;;5.73;;
13704;SDS011;6924;52.122;9.952;2023-08-08T07:46:34;4.60;;;4.20;;
13704;SDS011;6924;52.122;9.952;2023-08-08T07:49:01;5.63;;;3.70;;
13704;SDS011;6924;52.122;9.952;2023-08-08T07:51:28;3.80;;;3.50;;
13704;SDS011;6924;52.122;9.952;2023-08-08T07:53:55;4.83;;;3.33;;
13704;SDS011;6924;52.122;9.952;2023-08-08T07:56:21;4.93;;;3.40;;
13704;SDS011;6924;52.122;9.952;2023-08-08T07:58:49;4.17;;;2.73;;
13704;SDS011;6924;52.122;9.952;2023-08-08T08:01:16;6.60;;;2.73;;
13704;SDS011;6924;52.122;9.952;2023-08-08T08:03:43;2.60;;;2.40;;
13704;SDS011;6924;52.122;9.952;2023-08-08T08:06:10;4.37;;;2.60;;
13704;SDS011;6924;52.122;9.952;2023-08-08T08:08:36;2.80;;;2.53;;
13704;SDS011;6924;52.122;9.952;2023-08-08T08:11:04;2.87;;;2.57;;
13704;SDS011;6924;52.122;9.952;2023-08-08T08:13:30;3.27;;;2.97;;
13704;SDS011;6924;52.122;9.952;2023-08-08T08:15:58;4.53;;;2.40;;
13704;SDS011;6924;52.122;9.952;2023-08-08T08:18:25;4.23;;;2.50;;
13704;SDS011;6924;52.122;9.952;2023-08-08T08:20:51;2.87;;;2.40;;
13704;SDS011;6924;52.122;9.952;2023-08-08T08:23:18;2.43;;;2.20;;
13704;SDS011;6924;52.122;9.952;2023-08-08T08:25:44;4.87;;;2.73;;
13704;SDS011;6924;52.122;9.952;2023-08-08T08:28:11;5.60;;;2.03;;
13704;SDS011;6924;52.122;9.952;2023-08-08T08:30:37;4.17;;;2.20;;
13704;SDS011;6924;52.122;9.952;2023-08-08T08:33:05;4.17;;;2.20;;
13704;SDS011;6924;52.122;9.952;2023-08-08T08:35:32;2.37;;;1.53;;
13704;SDS011;6924;52.122;9.952;2023-08-08T08:37:59;2.50;;;2.13;;
13704;SDS011;6924;52.122;9.952;2023-08-08T08:40:26;4.50;;;2.17;;
13704;SDS011;6924;52.122;9.952;2023-08-08T08:42:53;4.80;;;1.83;;
13704;SDS011;6924;52.122;9.952;2023-08-08T08:45:20;2.10;;;2.00;;
13704;SDS011;6924;52.122;9.952;2023-08-08T08:47:48;1.33;;;1.23;;
13704;SDS011;6924;52.122;9.952;2023-08-08T08:50:20;4.40;;;2.00;;
13704;SDS011;6924;52.122;9.952;2023-08-08T08:52:48;2.40;;;2.20;;
13704;SDS011;6924;52.122;9.952;2023-08-08T08:55:16;3.30;;;1.70;;
13704;SDS011;6924;52.122;9.952;2023-08-08T08:57:43;7.93;;;3.43;;
13704;SDS011;6924;52.122;9.952;2023-08-08T09:00:11;3.77;;;1.67;;
13704;SDS011;6924;52.122;9.952;2023-08-08T09:02:38;2.77;;;1.40;;
13704;SDS011;6924;52.122;9.952;2023-08-08T09:05:05;1.90;;;1.70;;
13704;SDS011;6924;52.122;9.952;2023-08-08T09:07:34;3.40;;;1.70;;
13704;SDS011;6924;52.122;9.952;2023-08-08T09:10:02;2.67;;;2.10;;
13704;SDS011;6924;52.122;9.952;2023-08-08T09:12:29;2.90;;;2.07;;
13704;SDS011;6924;52.122;9.952;2023-08-08T09:14:57;4.33;;;2.60;;
13704;SDS011;6924;52.122;9.952;2023-08-08T09:17:24;3.07;;;2.20;;
13704;SDS011;6924;52.122;9.952;2023-08-08T09:19:52;2.20;;;2.00;;
13704;SDS011;6924;52.122;9.952;2023-08-08T09:22:19;3.03;;;2.20;;
13704;SDS011;6924;52.122;9.952;2023-08-08T09:24:47;5.20;;;2.37;;
13704;SDS011;6924;52.122;9.952;2023-08-08T09:27:13;4.57;;;2.30;;
13704;SDS011;6924;52.122;9.952;2023-08-08T09:29:40;5.17;;;2.87;;
13704;SDS011;6924;52.122;9.952;2023-08-08T09:32:08;3.90;;;3.00;;
13704;SDS011;6924;52.122;9.952;2023-08-08T09:34:35;2.23;;;2.03;;
13704;SDS011;6924;52.122;9.952;2023-08-08T09:37:01;5.30;;;2.70;;
13704;SDS011;6924;52.122;9.952;2023-08-08T09:39:30;2.40;;;1.97;;
13704;SDS011;6924;52.122;9.952;2023-08-08T09:41:58;2.63;;;2.43;;
13704;SDS011;6924;52.122;9.952;2023-08-08T09:44:24;3.27;;;2.97;;
13704;SDS011;6924;52.122;9.952;2023-08-08T09:46:54;2.10;;;2.00;;
13704;SDS011;6924;52.122;9.952;2023-08-08T09:49:21;3.47;;;2.80;;
13704;SDS011;6924;52.122;9.952;2023-08-08T09:51:48;3.33;;;2.70;;
13704;SDS011;6924;52.122;9.952;2023-08-08T09:54:15;3.03;;;2.43;;
13704;SDS011;6924;52.122;9.952;2023-08-08T09:56:42;4.90;;;2.67;;
13704;SDS011;6924;52.122;9.952;2023-08-08T09:59:11;3.33;;;3.03;;
13704;SDS011;6924;52.122;9.952;2023-08-08T10:01:38;5.07;;;3.40;;
13704;SDS011;6924;52.122;9.952;2023-08-08T10:04:06;3.73;;;3.20;;
13704;SDS011;6924;52.122;9.952;2023-08-08T10:06:33;4.97;;;3.37;;
13704;SDS011;6924;52.122;9.952;2023-08-08T10:09:00;3.87;;;3.40;;
13704;SDS011;6924;52.122;9.952;2023-08-08T10:11:28;3.73;;;3.40;;
13704;SDS011;6924;52.122;9.952;2023-08-08T10:13:56;3.73;;;3.03;;
13704;SDS011;6924;52.122;9.952;2023-08-08T10:16:26;4.77;;;3.57;;
13704;SDS011;6924;52.122;9.952;2023-08-08T10:18:56;5.53;;;3.00;;
13704;SDS011;6924;52.122;9.952;2023-08-08T10:21:24;4.53;;;3.50;;
13704;SDS011;6924;52.122;9.952;2023-08-08T10:24:00;4.63;;;4.10;;
13704;SDS011;6924;52.122;9.952;2023-08-08T10:26:28;4.43;;;3.80;;
13704;SDS011;6924;52.122;9.952;2023-08-08T10:28:55;4.03;;;3.20;;
13704;SDS011;6924;52.122;9.952;2023-08-08T10:31:23;16.13;;;4.10;;
13704;SDS011;6924;52.122;9.952;2023-08-08T10:34:00;5.47;;;3.07;;
13704;SDS011;6924;52.122;9.952;2023-08-08T10:36:42;5.23;;;3.57;;
13704;SDS011;6924;52.122;9.952;2023-08-08T10:39:10;4.40;;;3.40;;
13704;SDS011;6924;52.122;9.952;2023-08-08T10:41:43;4.83;;;3.67;;
13704;SDS011;6924;52.122;9.952;2023-08-08T10:44:11;3.23;;;2.93;;
13704;SDS011;6924;52.122;9.952;2023-08-08T10:46:40;3.83;;;2.57;;
13704;SDS011;6924;52.122;9.952;2023-08-08T10:49:10;6.33;;;2.87;;
13704;SDS011;6924;52.122;9.952;2023-08-08T10:51:39;4.73;;;3.00;;
13704;SDS011;6924;52.122;9.952;2023-08-08T10:54:09;6.10;;;2.87;;
13704;SDS011;6924;52.122;9.952;2023-08-08T10:56:38;3.23;;;2.37;;
13704;SDS011;6924;52.122;9.952;2023-08-08T10:59:13;5.00;;;2.40;;
13704;SDS011;6924;52.122;9.952;2023-08-08T11:01:41;2.43;;;2.23;;
13704;SDS011;6924;52.122;9.952;2023-08-08T11:04:12;3.07;;;2.77;;
13704;SDS011;6924;52.122;9.952;2023-08-08T11:06:39;3.37;;;2.90;;
13704;SDS011;6924;52.122;9.952;2023-08-08T11:09:06;2.77;;;2.57;;
13704;SDS011;6924;52.122;9.952;2023-08-08T11:11:35;2.67;;;2.40;;
13704;SDS011;6924;52.122;9.952;2023-08-08T11:14:08;2.40;;;2.20;;
13704;SDS011;6924;52.122;9.952;2023-08-08T11:16:36;4.40;;;2.20;;
13704;SDS011;6924;52.122;9.952;2023-08-08T11:19:03;2.67;;;2.03;;
13704;SDS011;6924;52.122;9.952;2023-08-08T11:21:33;2.83;;;2.63;;
13704;SDS011;6924;52.122;9.952;2023-08-08T11:24:01;4.43;;;2.73;;
13704;SDS011;6924;52.122;9.952;2023-08-08T11:26:28;3.20;;;3.00;;
13704;SDS011;6924;52.122;9.952;2023-08-08T11:28:56;2.83;;;2.57;;
13704;SDS011;6924;52.122;9.952;2023-08-08T11:31:23;2.80;;;2.60;;
13704;SDS011;6924;52.122;9.952;2023-08-08T11:33:50;4.20;;;2.97;;
13704;SDS011;6924;52.122;9.952;2023-08-08T11:36:18;3.50;;;2.27;;
13704;SDS011;6924;52.122;9.952;2023-08-08T11:38:46;2.73;;;2.30;;
13704;SDS011;6924;52.122;9.952;2023-08-08T11:41:13;2.47;;;2.20;;
13704;SDS011;6924;52.122;9.952;2023-08-08T11:43:41;2.90;;;2.13;;
13704;SDS011;6924;52.122;9.952;2023-08-08T11:46:08;2.13;;;2.03;;
13704;SDS011;6924;52.122;9.952;2023-08-08T11:48:36;3.60;;;1.97;;
13704;SDS011;6924;52.122;9.952;2023-08-08T11:51:03;5.00;;;1.90;;
13704;SDS011;6924;52.122;9.952;2023-08-08T11:53:30;2.37;;;2.20;;
13704;SDS011;6924;52.122;9.952;2023-08-08T11:55:58;1.90;;;1.63;;
13704;SDS011;6924;52.122;9.952;2023-08-08T11:58:25;2.30;;;1.43;;
13704;SDS011;6924;52.122;9.952;2023-08-08T12:00:52;2.27;;;1.87;;
13704;SDS011;6924;52.122;9.952;2023-08-08T12:03:19;2.03;;;1.53;;
13704;SDS011;6924;52.122;9.952;2023-08-08T12:05:46;1.10;;;0.93;;
13704;SDS011;6924;52.122;9.952;2023-08-08T12:08:13;1.87;;;0.97;;
13704;SDS011;6924;52.122;9.952;2023-08-08T12:10:47;1.60;;;0.93;;
13704;SDS011;6924;52.122;9.952;2023-08-08T12:13:19;2.23;;;1.20;;
13704;SDS011;6924;52.122;9.952;2023-08-08T12:15:46;1.43;;;1.10;;
13704;SDS011;6924;52.122;9.952;2023-08-08T12:18:15;1.20;;;1.10;;
13704;SDS011;6924;52.122;9.952;2023-08-08T12:20:42;1.63;;;1.00;;
13704;SDS011;6924;52.122;9.952;2023-08-08T12:23:09;2.10;;;1.13;;
13704;SDS011;6924;52.122;9.952;2023-08-08T12:25:36;2.13;;;0.93;;
13704;SDS011;6924;52.122;9.952;2023-08-08T12:28:02;1.67;;;0.70;;
13704;SDS011;6924;52.122;9.952;2023-08-08T12:30:31;1.47;;;0.90;;
13704;SDS011;6924;52.122;9.952;2023-08-08T12:32:57;1.43;;;0.77;;
13704;SDS011;6924;52.122;9.952;2023-08-08T12:35:24;1.43;;;1.00;;
13704;SDS011;6924;52.122;9.952;2023-08-08T12:37:51;1.17;;;1.07;;
13704;SDS011;6924;52.122;9.952;2023-08-08T12:40:18;1.90;;;0.70;;
13704;SDS011;6924;52.122;9.952;2023-08-08T12:42:44;1.37;;;0.90;;
13704;SDS011;6924;52.122;9.952;2023-08-08T12:45:11;1.53;;;0.90;;
13704;SDS011;6924;52.122;9.952;2023-08-08T12:47:39;1.30;;;1.10;;
13704;SDS011;6924;52.122;9.952;2023-08-08T12:50:06;1.87;;;0.80;;
13704;SDS011;6924;52.122;9.952;2023-08-08T12:52:32;1.03;;;0.90;;
13704;SDS011;6924;52.122;9.952;2023-08-08T12:54:59;0.60;;;0.60;;
13704;SDS011;6924;52.122;9.952;2023-08-08T12:57:26;2.40;;;0.80;;
13704;SDS011;6924;52.122;9.952;2023-08-08T12:59:52;1.23;;;0.90;;
13704;SDS011;6924;52.122;9.952;2023-08-08T13:02:19;2.57;;;0.57;;
13704;SDS011;6924;52.122;9.952;2023-08-08T13:04:47;1.23;;;0.60;;
13704;SDS011;6924;52.122;9.952;2023-08-08T13:07:14;1.37;;;0.60;;
13704;SDS011;6924;52.122;9.952;2023-08-08T13:09:40;1.80;;;0.70;;
13704;SDS011;6924;52.122;9.952;2023-08-08T13:12:07;5.13;;;1.43;;
13704;SDS011;6924;52.122;9.952;2023-08-08T13:14:33;0.70;;;0.60;;
13704;SDS011;6924;52.122;9.952;2023-08-08T13:17:00;0.63;;;0.57;;
13704;SDS011;6924;52.122;9.952;2023-08-08T13:19:26;1.93;;;0.90;;
13704;SDS011;6924;52.122;9.952;2023-08-08T13:21:54;1.40;;;0.70;;
13704;SDS011;6924;52.122;9.952;2023-08-08T13:24:21;1.37;;;0.57;;
13704;SDS011;6924;52.122;9.952;2023-08-08T13:26:48;0.83;;;0.70;;
13704;SDS011;6924;52.122;9.952;2023-08-08T13:29:14;1.53;;;0.80;;
13704;SDS011;6924;52.122;9.952;2023-08-08T13:31:41;2.07;;;0.63;;
13704;SDS011;6924;52.122;9.952;2023-08-08T13:34:08;1.43;;;0.70;;
13704;SDS011;6924;52.122;9.952;2023-08-08T13:36:35;1.00;;;0.60;;
13704;SDS011;6924;52.122;9.952;2023-08-08T13:39:03;1.53;;;0.50;;
13704;SDS011;6924;52.122;9.952;2023-08-08T13:41:30;0.93;;;0.60;;
13704;SDS011;6924;52.122;9.952;2023-08-08T13:43:56;2.20;;;0.50;;
13704;SDS011;6924;52.122;9.952;2023-08-08T13:46:23;1.80;;;0.60;;
13704;SDS011;6924;52.122;9.952;2023-08-08T13:48:50;0.57;;;0.40;;
13704;SDS011;6924;52.122;9.952;2023-08-08T13:51:17;2.73;;;0.60;;
13704;SDS011;6924;52.122;9.952;2023-08-08T13:53:44;0.60;;;0.40;;
13704;SDS011;6924;52.122;9.952;2023-08-08T13:56:12;1.27;;;0.90;;
13704;SDS011;6924;52.122;9.952;2023-08-08T13:58:39;2.03;;;0.60;;
13704;SDS011;6924;52.122;9.952;2023-08-08T14:01:05;0.40;;;0.40;;
13704;SDS011;6924;52.122;9.952;2023-08-08T14:03:32;3.87;;;0.80;;
13704;SDS011;6924;52.122;9.952;2023-08-08T14:05:59;1.37;;;0.50;;
13704;SDS011;6924;52.122;9.952;2023-08-08T14:08:25;1.27;;;0.40;;
13704;SDS011;6924;52.122;9.952;2023-08-08T14:10:52;1.90;;;0.60;;
13704;SDS011;6924;52.122;9.952;2023-08-08T14:13:20;1.93;;;0.57;;
13704;SDS011;6924;52.122;9.952;2023-08-08T14:15:46;2.70;;;0.50;;
13704;SDS011;6924;52.122;9.952;2023-08-08T14:18:14;0.63;;;0.40;;
13704;SDS011;6924;52.122;9.952;2023-08-08T14:20:40;1.83;;;1.20;;
13704;SDS011;6924;52.122;9.952;2023-08-08T14:23:07;3.70;;;0.67;;
13704;SDS011;6924;52.122;9.952;2023-08-08T14:25:33;0.60;;;0.60;;
13704;SDS011;6924;52.122;9.952;2023-08-08T14:28:00;0.47;;;0.40;;
13704;SDS011;6924;52.122;9.952;2023-08-08T14:30:30;2.23;;;0.50;;
13704;SDS011;6924;52.122;9.952;2023-08-08T14:32:56;0.67;;;0.40;;
13704;SDS011;6924;52.122;9.952;2023-08-08T14:35:23;0.53;;;0.53;;
13704;SDS011;6924;52.122;9.952;2023-08-08T14:37:49;1.40;;;0.43;;
13704;SDS011;6924;52.122;9.952;2023-08-08T14:40:16;1.03;;;0.50;;
13704;SDS011;6924;52.122;9.952;2023-08-08T14:42:42;0.50;;;0.40;;
13704;SDS011;6924;52.122;9.952;2023-08-08T14:45:09;1.00;;;0.40;;
13704;SDS011;6924;52.122;9.952;2023-08-08T14:47:36;1.53;;;1.00;;
13704;SDS011;6924;52.122;9.952;2023-08-08T14:50:03;1.07;;;0.50;;
13704;SDS011;6924;52.122;9.952;2023-08-08T14:52:30;1.97;;;0.80;;
13704;SDS011;6924;52.122;9.952;2023-08-08T14:54:57;1.00;;;0.40;;
13704;SDS011;6924;52.122;9.952;2023-08-08T14:57:23;0.50;;;0.50;;
13704;SDS011;6924;52.122;9.952;2023-08-08T14:59:50;1.63;;;0.63;;